Time;durP1;ratioP1;P1;durP2;ratioP2;P2;SDS_P1;SDS_P2;PMS_P1;PMS_P2;Temp;Humidity;BMP_temperature;BMP_pressure;BME280_temperature;BME280_humidity;BME280_pressure;Samples;Min_cycle;Max_cycle;Signal;HPM_P1;HPM_P2
2023/05/11 00:00:29;;;;;;;;;;;;;;;25.00;32.79;101361.88;5078706;28;1070;-24
2023/05/11 00:02:55;;;;;;;;;;;;;;;24.87;33.29;101362.25;5077755;28;899;-26
2023/05/11 00:05:20;;;;;;;;;;;;;;;24.96;32.87;101360.53;5089315;28;1963;-23
2023/05/11 00:07:46;;;;;;;;;;;;;;;24.88;33.21;101366.63;5075632;28;1158;-24
2023/05/11 00:10:11;;;;;;;;;;;;;;;24.96;33.11;101357.81;5079242;28;1218;-27
2023/05/11 00:12:37;;;;;;;;;;;;;;;24.91;33.10;101367.19;5085732;28;1062;-27
2023/05/11 00:15:03;;;;;;;;;;;;;;;24.92;33.08;101370.75;5086713;28;1146;-28
2023/05/11 00:17:28;;;;;;;;;;;;;;;24.89;33.04;101374.53;5079589;28;1227;-26
2023/05/11 00:19:54;;;;;;;;;;;;;;;24.81;33.43;101367.22;5093018;28;1091;-29
2023/05/11 00:22:20;;;;;;;;;;;;;;;24.84;33.29;101366.06;5079788;28;1209;-27
2023/05/11 00:24:45;;;;;;;;;;;;;;;24.86;33.33;101366.78;5078959;28;1901;-26
2023/05/11 00:27:11;;;;;;;;;;;;;;;24.83;33.29;101365.25;5081844;28;899;-28
2023/05/11 00:29:36;;;;;;;;;;;;;;;24.82;33.40;101371.59;5096598;28;1166;-26
2023/05/11 00:32:03;;;;;;;;;;;;;;;24.83;33.43;101370.63;5089225;28;1248;-27
2023/05/11 00:34:28;;;;;;;;;;;;;;;24.86;33.34;101368.63;5061737;28;1123;-25
2023/05/11 00:36:54;;;;;;;;;;;;;;;24.89;33.29;101374.53;5061558;28;1225;-26
2023/05/11 00:39:20;;;;;;;;;;;;;;;24.90;33.16;101373.59;5070304;28;1131;-25
2023/05/11 00:41:46;;;;;;;;;;;;;;;24.81;33.44;101366.38;5081469;28;1340;-23
2023/05/11 00:44:12;;;;;;;;;;;;;;;24.85;33.55;101377.69;5067382;28;2002;-23
2023/05/11 00:46:37;;;;;;;;;;;;;;;24.85;33.45;101373.16;5081124;28;1106;-29
2023/05/11 00:49:03;;;;;;;;;;;;;;;24.85;33.27;101366.91;5046777;28;1161;-27
2023/05/11 00:51:29;;;;;;;;;;;;;;;24.85;33.41;101369.63;5082181;28;884;-24
2023/05/11 00:53:54;;;;;;;;;;;;;;;24.80;33.65;101362.00;5081008;28;1150;-28
2023/05/11 00:56:20;;;;;;;;;;;;;;;24.79;33.44;101361.16;5088925;28;1126;-26
2023/05/11 00:58:46;;;;;;;;;;;;;;;24.78;33.45;101359.47;5079133;28;1137;-24
2023/05/11 01:01:13;;;;;;;;;;;;;;;24.88;33.47;101353.16;5077936;28;1114;-24
2023/05/11 01:03:39;;;;;;;;;;;;;;;24.83;33.40;101357.16;5091556;28;1909;-26
2023/05/11 01:06:09;;;;;;;;;;;;;;;24.85;33.49;101357.00;5079007;28;1071;-25
2023/05/11 01:08:37;;;;;;;;;;;;;;;24.86;33.57;101349.78;5090911;28;1200;-24
2023/05/11 01:11:26;;;;;;;;;;;;;;;24.80;33.44;101352.09;5055654;28;1238;-24
2023/05/11 01:13:53;;;;;;;;;;;;;;;24.86;33.56;101350.63;5080650;28;1192;-29
2023/05/11 01:16:25;;;;;;;;;;;;;;;24.86;33.50;101357.88;5064665;28;1185;-25
2023/05/11 01:19:01;;;;;;;;;;;;;;;24.89;33.40;101362.94;5060973;28;1245;-27
2023/05/11 01:21:32;;;;;;;;;;;;;;;24.88;33.52;101361.22;5073912;28;1670;-24
2023/05/11 01:24:03;;;;;;;;;;;;;;;24.78;33.72;101353.22;5089165;28;1909;-25
2023/05/11 01:26:49;;;;;;;;;;;;;;;24.83;33.54;101364.38;5079059;28;1205;-24
2023/05/11 01:29:35;;;;;;;;;;;;;;;24.78;33.53;101367.53;5067010;28;1190;-25
2023/05/11 01:32:02;;;;;;;;;;;;;;;24.79;33.41;101363.00;5070371;28;1137;-24
2023/05/11 01:34:29;;;;;;;;;;;;;;;24.76;33.43;101360.59;5080461;28;1090;-24
2023/05/11 01:36:57;;;;;;;;;;;;;;;24.79;33.60;101357.63;5070768;28;1110;-26
2023/05/11 01:39:33;;;;;;;;;;;;;;;24.75;33.31;101356.22;5091395;28;1078;-29
2023/05/11 01:42:01;;;;;;;;;;;;;;;24.96;33.43;101357.81;5071963;28;1150;-26
2023/05/11 01:44:26;;;;;;;;;;;;;;;24.86;33.51;101355.19;5075177;28;1988;-24
2023/05/11 01:46:52;;;;;;;;;;;;;;;24.92;33.42;101352.72;5089949;28;1042;-23
2023/05/11 01:49:17;;;;;;;;;;;;;;;24.80;33.75;101351.25;5093435;28;1102;-26
2023/05/11 01:51:44;;;;;;;;;;;;;;;24.82;33.64;101357.31;5077975;28;887;-25
2023/05/11 01:54:10;;;;;;;;;;;;;;;24.83;33.51;101346.41;5078676;28;1031;-26
2023/05/11 01:56:36;;;;;;;;;;;;;;;24.77;33.86;101348.84;5068550;28;1269;-24
2023/05/11 01:59:02;;;;;;;;;;;;;;;24.91;33.45;101342.13;5073003;28;1897;-24
2023/05/11 02:01:28;;;;;;;;;;;;;;;24.86;33.65;101349.78;5070915;28;1322;-25
2023/05/11 02:03:53;;;;;;;;;;;;;;;24.80;33.74;101351.25;5069051;28;1979;-24
2023/05/11 02:06:20;;;;;;;;;;;;;;;24.85;33.59;101348.09;5076552;28;1066;-24
2023/05/11 02:08:45;;;;;;;;;;;;;;;24.82;33.56;101354.63;5059859;28;1256;-23
2023/05/11 02:11:11;;;;;;;;;;;;;;;24.78;33.64;101358.59;5077814;28;1139;-25
2023/05/11 02:13:38;;;;;;;;;;;;;;;24.81;33.91;101361.00;5077461;28;1126;-25
2023/05/11 02:16:04;;;;;;;;;;;;;;;24.78;33.87;101356.78;5067438;28;1443;-25
2023/05/11 02:18:29;;;;;;;;;;;;;;;24.88;33.58;101351.31;5059884;28;1125;-25
2023/05/11 02:20:56;;;;;;;;;;;;;;;24.76;33.94;101350.69;5062812;28;1110;-24
2023/05/11 02:23:22;;;;;;;;;;;;;;;24.88;33.98;101362.09;5073842;28;1906;-26
2023/05/11 02:25:48;;;;;;;;;;;;;;;24.79;33.98;101349.56;5089323;28;1103;-24
2023/05/11 02:28:13;;;;;;;;;;;;;;;24.76;33.91;101341.75;5091757;28;1110;-30
2023/05/11 02:30:49;;;;;;;;;;;;;;;24.79;33.88;101338.78;5050343;28;1055;-25
2023/05/11 02:33:24;;;;;;;;;;;;;;;24.85;33.71;101334.63;5066043;28;1240;-26
2023/05/11 02:35:50;;;;;;;;;;;;;;;24.80;33.67;101341.34;5065669;28;1436;-25
2023/05/11 02:38:16;;;;;;;;;;;;;;;24.82;33.74;101339.31;5078745;28;1381;-25
2023/05/11 02:40:44;;;;;;;;;;;;;;;24.83;33.88;101341.03;5064145;28;1391;-26
2023/05/11 02:43:10;;;;;;;;;;;;;;;24.83;33.76;101337.47;5075688;28;1902;-24
2023/05/11 02:45:41;;;;;;;;;;;;;;;24.76;33.78;101339.94;5076145;28;1049;-26
2023/05/11 02:48:08;;;;;;;;;;;;;;;24.75;33.89;101338.25;5078603;28;1145;-24
2023/05/11 02:50:38;;;;;;;;;;;;;;;24.81;33.76;101334.94;5075531;28;1095;-25
2023/05/11 02:53:06;;;;;;;;;;;;;;;24.70;34.09;101338.72;5085528;28;959;-25
2023/05/11 02:55:33;;;;;;;;;;;;;;;24.69;33.91;101333.50;5078540;28;1564;-24
2023/05/11 02:57:58;;;;;;;;;;;;;;;24.73;33.95;101342.94;5086683;28;1105;-24
2023/05/11 03:00:24;;;;;;;;;;;;;;;24.76;33.89;101333.69;5058440;28;1084;-23
2023/05/11 03:02:50;;;;;;;;;;;;;;;24.79;33.62;101339.63;5058371;28;1261;-27
2023/05/11 03:05:19;;;;;;;;;;;;;;;24.79;33.75;101347.69;5071893;28;1983;-26
2023/05/11 03:07:45;;;;;;;;;;;;;;;24.79;33.91;101353.06;5058679;28;1159;-25
2023/05/11 03:10:10;;;;;;;;;;;;;;;24.80;33.73;101354.78;5074657;28;1102;-23
2023/05/11 03:12:39;;;;;;;;;;;;;;;24.76;33.85;101358.75;5074781;28;2175;-24
2023/05/11 03:15:05;;;;;;;;;;;;;;;24.90;33.37;101357.44;5093880;28;1070;-24
2023/05/11 03:17:32;;;;;;;;;;;;;;;24.82;33.54;101363.53;5066708;28;1272;-25
2023/05/11 03:19:58;;;;;;;;;;;;;;;24.81;33.83;101361.84;5074599;28;1237;-25
2023/05/11 03:22:24;;;;;;;;;;;;;;;24.91;33.55;101369.88;5075029;28;1137;-24
2023/05/11 03:24:50;;;;;;;;;;;;;;;24.86;33.76;101369.47;5071256;28;1909;-24
2023/05/11 03:27:15;;;;;;;;;;;;;;;24.73;33.81;101368.97;5059833;28;1150;-24
2023/05/11 03:29:43;;;;;;;;;;;;;;;24.85;33.49;101372.31;5061703;28;1249;-24
2023/05/11 03:32:09;;;;;;;;;;;;;;;24.78;33.72;101370.22;5067523;28;1135;-24
2023/05/11 03:34:37;;;;;;;;;;;;;;;24.40;31.61;101372.16;5071649;28;1198;-27
2023/05/11 03:37:06;;;;;;;;;;;;;;;23.88;30.59;101374.31;5058174;28;1275;-25
2023/05/11 03:39:32;;;;;;;;;;;;;;;23.14;31.33;101365.91;5080459;28;1226;-28
2023/05/11 03:41:58;;;;;;;;;;;;;;;22.44;31.79;101367.59;5066369;28;1038;-27
2023/05/11 03:44:23;;;;;;;;;;;;;;;22.29;32.04;101359.06;5058181;28;1918;-29
2023/05/11 03:46:50;;;;;;;;;;;;;;;22.29;31.61;101367.94;5061668;28;1163;-27
2023/05/11 03:49:16;;;;;;;;;;;;;;;22.16;32.14;101365.50;5072690;28;1175;-26
2023/05/11 03:51:42;;;;;;;;;;;;;;;22.01;32.01;101368.53;5077979;28;1238;-26
2023/05/11 03:54:07;;;;;;;;;;;;;;;22.62;33.28;101378.53;5062053;28;1234;-26
2023/05/11 03:56:34;;;;;;;;;;;;;;;22.83;31.69;101377.56;5057984;28;1226;-25
2023/05/11 03:59:01;;;;;;;;;;;;;;;22.87;31.43;101370.97;5058407;28;1237;-28
2023/05/11 04:01:26;;;;;;;;;;;;;;;22.87;31.39;101381.69;5076411;28;1147;-23
2023/05/11 04:03:52;;;;;;;;;;;;;;;23.13;31.21;101373.09;5076623;28;1898;-25
2023/05/11 04:06:18;;;;;;;;;;;;;;;23.38;31.36;101372.66;5058087;28;1318;-25
2023/05/11 04:08:45;;;;;;;;;;;;;;;23.41;31.07;101375.94;5057965;28;1227;-28
2023/05/11 04:11:10;;;;;;;;;;;;;;;23.34;31.34;101375.63;5058388;28;1116;-27
2023/05/11 04:13:36;;;;;;;;;;;;;;;23.29;31.09;101382.41;5079040;28;1138;-24
2023/05/11 04:16:03;;;;;;;;;;;;;;;23.18;31.28;101386.94;5069093;28;1366;-26
2023/05/11 04:18:29;;;;;;;;;;;;;;;23.01;31.52;101380.41;5054438;28;1166;-26
2023/05/11 04:20:55;;;;;;;;;;;;;;;23.05;31.51;101384.53;5055874;28;1126;-24
2023/05/11 04:23:20;;;;;;;;;;;;;;;23.30;31.11;101386.78;5055482;28;1977;-26
2023/05/11 04:25:46;;;;;;;;;;;;;;;23.32;30.84;101393.69;5066406;28;1126;-24
2023/05/11 04:28:11;;;;;;;;;;;;;;;23.24;31.33;101388.19;5057023;28;1149;-30
2023/05/11 04:30:37;;;;;;;;;;;;;;;23.35;31.30;101387.22;5055801;28;1125;-26
2023/05/11 04:33:03;;;;;;;;;;;;;;;22.85;32.50;101397.06;5067343;28;1032;-25
2023/05/11 04:35:29;;;;;;;;;;;;;;;22.74;33.50;101389.97;5066084;28;1099;-23
2023/05/11 04:37:55;;;;;;;;;;;;;;;23.53;32.01;101395.44;5069272;28;1196;-23
2023/05/11 04:40:21;;;;;;;;;;;;;;;23.96;31.05;101393.22;5060224;28;1138;-24
2023/05/11 04:42:47;;;;;;;;;;;;;;;24.01;31.33;101395.47;5060778;28;1377;-28
2023/05/11 04:45:15;;;;;;;;;;;;;;;24.25;30.68;101396.00;5062121;28;1917;-26
2023/05/11 04:47:41;;;;;;;;;;;;;;;24.22;30.94;101394.47;5068074;28;1162;-25
2023/05/11 04:50:08;;;;;;;;;;;;;;;24.32;31.03;101399.78;5074200;28;1452;-25
2023/05/11 04:52:34;;;;;;;;;;;;;;;24.23;30.95;101401.50;5072781;28;1257;-26
2023/05/11 04:55:00;;;;;;;;;;;;;;;24.27;30.91;101407.44;5073614;28;1118;-24
2023/05/11 04:57:26;;;;;;;;;;;;;;;24.09;31.06;101406.34;5054885;28;1126;-24
2023/05/11 04:59:51;;;;;;;;;;;;;;;24.14;31.16;101407.75;5055541;28;1139;-25
2023/05/11 05:02:17;;;;;;;;;;;;;;;24.21;30.68;101412.41;5058526;28;1022;-24
2023/05/11 05:04:43;;;;;;;;;;;;;;;24.15;30.81;101414.81;5064833;28;2048;-27
2023/05/11 05:07:09;;;;;;;;;;;;;;;23.98;31.22;101419.94;5077074;28;1110;-24
2023/05/11 05:09:35;;;;;;;;;;;;;;;23.96;31.11;101422.78;5058853;28;1169;-25
2023/05/11 05:12:00;;;;;;;;;;;;;;;23.97;30.91;101421.78;5064014;28;1312;-24
2023/05/11 05:14:26;;;;;;;;;;;;;;;23.95;31.10;101421.09;5078908;28;1449;-23
2023/05/11 05:16:53;;;;;;;;;;;;;;;24.04;31.51;101429.28;5058516;28;1145;-30
2023/05/11 05:19:18;;;;;;;;;;;;;;;22.92;34.95;101424.19;5057446;28;1867;-23
2023/05/11 05:21:44;;;;;;;;;;;;;;;22.58;34.48;101426.19;5070349;28;1245;-26
2023/05/11 05:24:11;;;;;;;;;;;;;;;26.49;28.55;101420.56;5058387;28;1902;-25
2023/05/11 05:26:36;;;;;;;;;;;;;;;25.94;28.06;101422.59;5057460;28;1154;-24
2023/05/11 05:29:03;;;;;;;;;;;;;;;24.75;30.35;101421.66;5072781;28;2022;-25
2023/05/11 05:31:28;;;;;;;;;;;;;;;25.80;28.64;101433.78;5076826;28;1029;-23
2023/05/11 05:33:54;;;;;;;;;;;;;;;25.46;29.98;101433.66;5067723;28;1225;-26
2023/05/11 05:36:20;;;;;;;;;;;;;;;25.90;29.28;101436.38;5076460;28;1189;-25
2023/05/11 05:38:46;;;;;;;;;;;;;;;26.75;27.78;101433.97;5076931;28;1166;-24
2023/05/11 05:41:12;;;;;;;;;;;;;;;27.31;27.31;101437.97;5063387;28;1158;-26
2023/05/11 05:43:42;;;;;;;;;;;;;;;28.14;25.89;101442.50;5073668;28;1906;-26
2023/05/11 05:46:07;;;;;;;;;;;;;;;26.44;28.51;101441.78;5067816;28;1050;-25
2023/05/11 05:48:33;;;;;;;;;;;;;;;26.03;29.28;101433.28;5076807;28;1121;-24
2023/05/11 05:51:00;;;;;;;;;;;;;;;25.94;29.89;101449.53;5067625;28;1385;-27
2023/05/11 05:53:26;;;;;;;;;;;;;;;25.83;30.27;101448.78;5072846;28;1309;-23
2023/05/11 05:55:53;;;;;;;;;;;;;;;26.12;29.80;101441.41;5066542;28;1202;-28
2023/05/11 05:58:19;;;;;;;;;;;;;;;27.56;27.88;101454.19;5059634;28;1333;-32
2023/05/11 06:00:45;;;;;;;;;;;;;;;26.49;29.23;101453.75;5066341;28;1108;-25
2023/05/11 06:03:11;;;;;;;;;;;;;;;26.02;30.20;101445.06;5056404;28;1408;-28
2023/05/11 06:05:37;;;;;;;;;;;;;;;27.33;28.48;101456.72;5065813;28;2015;-24
2023/05/11 06:08:02;;;;;;;;;;;;;;;27.10;28.47;101443.84;5054978;28;1151;-26
2023/05/11 06:10:28;;;;;;;;;;;;;;;25.96;30.23;101450.25;5056905;28;1122;-24
2023/05/11 06:12:54;;;;;;;;;;;;;;;25.60;30.99;101457.34;5071752;28;1282;-23
2023/05/11 06:15:20;;;;;;;;;;;;;;;27.41;28.47;101464.81;5085239;28;1199;-27
2023/05/11 06:17:50;;;;;;;;;;;;;;;26.57;29.29;101460.19;5064726;28;1269;-27
2023/05/11 06:20:16;;;;;;;;;;;;;;;25.59;31.38;101457.50;5057414;28;1086;-24
2023/05/11 06:22:42;;;;;;;;;;;;;;;26.81;29.37;101464.00;5069188;28;1354;-24
2023/05/11 06:25:07;;;;;;;;;;;;;;;27.70;27.90;101466.22;5075896;28;1981;-27
2023/05/11 06:27:35;;;;;;;;;;;;;;;26.58;29.62;101457.34;5062759;28;1198;-25
2023/05/11 06:30:00;;;;;;;;;;;;;;;26.21;30.26;101459.31;5071019;28;1269;-24
2023/05/11 06:32:31;;;;;;;;;;;;;;;27.21;28.65;101467.03;5069621;28;1139;-25
2023/05/11 06:34:57;;;;;;;;;;;;;;;27.13;28.84;101460.56;5068593;28;1154;-23
2023/05/11 06:37:23;;;;;;;;;;;;;;;26.39;29.95;101455.75;5056038;28;1321;-26
2023/05/11 06:39:49;;;;;;;;;;;;;;;26.24;30.19;101455.47;5068516;28;1217;-24
2023/05/11 06:42:15;;;;;;;;;;;;;;;27.56;28.42;101464.19;5057413;28;1250;-28
2023/05/11 06:44:40;;;;;;;;;;;;;;;27.78;27.79;101469.94;5066850;28;1922;-27
2023/05/11 06:47:06;;;;;;;;;;;;;;;26.87;29.51;101455.25;5068663;28;1166;-24
2023/05/11 06:49:32;;;;;;;;;;;;;;;26.31;30.77;101464.59;5056841;28;1270;-28
2023/05/11 06:51:57;;;;;;;;;;;;;;;27.54;28.43;101469.75;5069373;28;1107;-23
2023/05/11 06:54:23;;;;;;;;;;;;;;;26.72;29.40;101465.84;5076709;28;1264;-26
2023/05/11 06:56:49;;;;;;;;;;;;;;;25.62;31.65;101457.19;5066716;28;1273;-24
2023/05/11 06:59:14;;;;;;;;;;;;;;;25.85;31.53;101465.66;5056254;28;1230;-26
2023/05/11 07:01:40;;;;;;;;;;;;;;;27.05;29.64;101468.66;5056699;28;1312;-26
2023/05/11 07:04:06;;;;;;;;;;;;;;;26.43;30.36;101464.34;5063138;28;1902;-22
2023/05/11 07:06:32;;;;;;;;;;;;;;;26.11;30.76;101467.50;5068977;28;1069;-24
2023/05/11 07:08:57;;;;;;;;;;;;;;;27.14;29.58;101473.06;5056602;28;1082;-23
2023/05/11 07:11:24;;;;;;;;;;;;;;;26.73;29.72;101475.59;5073398;28;1082;-23
2023/05/11 07:13:49;;;;;;;;;;;;;;;25.88;31.26;101481.53;5063255;28;1304;-27
2023/05/11 07:16:15;;;;;;;;;;;;;;;25.74;31.82;101474.81;5081062;28;1093;-26
2023/05/11 07:18:40;;;;;;;;;;;;;;;27.10;29.38;101474.41;5091095;28;962;-23
2023/05/11 07:21:06;;;;;;;;;;;;;;;26.67;29.85;101477.13;5077667;28;1015;-25
2023/05/11 07:23:31;;;;;;;;;;;;;;;25.51;31.94;101486.06;5095689;28;1906;-26
2023/05/11 07:25:57;;;;;;;;;;;;;;;25.55;32.21;101486.59;5083114;28;1249;-25
2023/05/11 07:28:22;;;;;;;;;;;;;;;27.24;29.46;101494.50;5096772;28;1177;-24
2023/05/11 07:30:48;;;;;;;;;;;;;;;26.00;31.35;101481.25;5081838;28;878;-25
2023/05/11 07:33:13;;;;;;;;;;;;;;;25.32;32.40;101495.16;5083800;28;1030;-25
2023/05/11 07:35:39;;;;;;;;;;;;;;;26.74;30.44;101493.50;5095585;28;1244;-24
2023/05/11 07:38:06;;;;;;;;;;;;;;;26.72;30.39;101490.97;5081879;28;932;-25
2023/05/11 07:40:32;;;;;;;;;;;;;;;25.87;31.74;101495.16;5076209;28;1062;-28
2023/05/11 07:42:58;;;;;;;;;;;;;;;25.65;32.24;101494.63;5082239;28;1100;-27
2023/05/11 07:45:23;;;;;;;;;;;;;;;26.87;30.47;101490.34;5076272;28;1910;-23
2023/05/11 07:47:49;;;;;;;;;;;;;;;26.90;29.75;101488.19;5089501;28;1014;-25
2023/05/11 07:50:14;;;;;;;;;;;;;;;26.13;31.35;101495.16;5095954;28;1221;-25
2023/05/11 07:52:40;;;;;;;;;;;;;;;25.46;32.61;101482.16;5091725;28;1118;-27
2023/05/11 07:55:06;;;;;;;;;;;;;;;28.32;28.24;101498.25;5080519;28;984;-25
2023/05/11 07:57:31;;;;;;;;;;;;;;;26.90;29.62;101498.97;5092554;28;1221;-23
2023/05/11 07:59:57;;;;;;;;;;;;;;;26.89;29.97;101499.13;5095911;28;1173;-23
2023/05/11 08:02:22;;;;;;;;;;;;;;;28.04;28.32;101496.78;5079232;28;1082;-23
2023/05/11 08:04:48;;;;;;;;;;;;;;;28.63;27.44;101497.50;5075442;28;1909;-24
2023/05/11 08:07:13;;;;;;;;;;;;;;;27.12;29.43;101504.81;5091128;28;921;-22
2023/05/11 08:09:39;;;;;;;;;;;;;;;26.82;29.83;101500.78;5095934;28;1245;-23
2023/05/11 08:12:04;;;;;;;;;;;;;;;28.45;27.90;101517.53;5083700;28;1169;-28
2023/05/11 08:14:31;;;;;;;;;;;;;;;28.01;27.87;101515.22;5079506;28;1178;-29
2023/05/11 08:16:56;;;;;;;;;;;;;;;27.02;29.98;101520.31;5077089;28;1379;-31
2023/05/11 08:19:22;;;;;;;;;;;;;;;27.81;28.64;101516.38;5077138;28;1056;-26
2023/05/11 08:21:47;;;;;;;;;;;;;;;28.69;27.55;101515.75;5075241;28;1027;-27
2023/05/11 08:24:13;;;;;;;;;;;;;;;27.08;29.90;101505.28;5088022;28;1914;-29
2023/05/11 08:26:38;;;;;;;;;;;;;;;27.68;28.94;101506.09;5090489;28;1054;-26
2023/05/11 08:29:04;;;;;;;;;;;;;;;28.26;28.19;101510.59;5075659;28;1167;-27
2023/05/11 08:31:30;;;;;;;;;;;;;;;27.98;28.44;101502.84;5087874;28;1061;-29
2023/05/11 08:33:55;;;;;;;;;;;;;;;27.42;29.33;101500.81;5075292;28;1213;-28
2023/05/11 08:36:21;;;;;;;;;;;;;;;27.60;29.49;101497.94;5080605;28;1113;-24
2023/05/11 08:38:46;;;;;;;;;;;;;;;28.70;27.42;101503.91;5096487;28;939;-23
2023/05/11 08:41:12;;;;;;;;;;;;;;;27.22;29.54;101498.41;5091116;28;1125;-24
2023/05/11 08:43:38;;;;;;;;;;;;;;;27.62;28.86;101499.50;5083066;28;1913;-23
2023/05/11 08:46:07;;;;;;;;;;;;;;;28.19;28.11;101502.34;5088539;28;1149;-26
2023/05/11 08:48:33;;;;;;;;;;;;;;;28.19;27.81;101494.22;5083737;28;1106;-24
2023/05/11 08:50:58;;;;;;;;;;;;;;;27.45;29.13;101493.22;5085919;28;1162;-24
2023/05/11 08:53:24;;;;;;;;;;;;;;;27.08;29.74;101484.53;5085429;28;1249;-23
2023/05/11 08:55:50;;;;;;;;;;;;;;;28.53;27.17;101488.75;5079378;28;854;-23
2023/05/11 08:58:21;;;;;;;;;;;;;;;27.21;28.95;101483.22;5079064;28;1099;-25
2023/05/11 09:00:49;;;;;;;;;;;;;;;27.26;29.16;101487.09;5093110;28;1142;-26
2023/05/11 09:03:16;;;;;;;;;;;;;;;28.18;27.81;101481.69;5078721;28;1101;-23
2023/05/11 09:05:42;;;;;;;;;;;;;;;28.04;27.98;101479.72;5083456;28;1966;-24
2023/05/11 09:08:07;;;;;;;;;;;;;;;27.36;29.25;101478.84;5086835;28;1078;-23
2023/05/11 09:10:33;;;;;;;;;;;;;;;27.72;28.99;101476.88;5079468;28;1062;-25
2023/05/11 09:12:58;;;;;;;;;;;;;;;28.68;27.36;101478.00;5059586;28;1381;-23
2023/05/11 09:15:24;;;;;;;;;;;;;;;27.42;29.02;101471.94;5078359;28;1503;-24
2023/05/11 09:17:49;;;;;;;;;;;;;;;26.94;29.68;101469.78;5079290;28;1301;-26
2023/05/11 09:20:15;;;;;;;;;;;;;;;28.22;28.04;101471.38;5072880;28;1270;-22
2023/05/11 09:22:44;;;;;;;;;;;;;;;28.07;28.17;101473.94;5085610;28;894;-25
2023/05/11 09:25:12;;;;;;;;;;;;;;;27.43;29.22;101470.91;5085375;28;1988;-23
2023/05/11 09:27:45;;;;;;;;;;;;;;;27.69;29.11;101471.81;5085736;28;1245;-26
2023/05/11 09:30:14;;;;;;;;;;;;;;;28.65;27.56;101464.84;5095859;28;1201;-24
2023/05/11 09:32:46;;;;;;;;;;;;;;;27.47;29.38;101458.78;5077763;28;1308;-25
2023/05/11 09:35:39;;;;;;;;;;;;;;;27.35;29.46;101463.66;5076889;28;1214;-23
2023/05/11 09:38:10;;;;;;;;;;;;;;;28.38;28.10;101462.41;5074912;28;2128;-24
2023/05/11 09:40:36;;;;;;;;;;;;;;;27.69;28.55;101461.84;5077276;28;1238;-25
2023/05/11 09:43:02;;;;;;;;;;;;;;;27.26;29.56;101459.22;5084602;28;1078;-25
2023/05/11 09:45:38;;;;;;;;;;;;;;;27.83;28.81;101459.44;5078173;28;1971;-24
2023/05/11 09:48:04;;;;;;;;;;;;;;;28.28;27.79;101461.75;5090532;28;1086;-23
2023/05/11 09:50:33;;;;;;;;;;;;;;;27.82;29.22;101463.19;5079571;28;876;-26
2023/05/11 09:52:59;;;;;;;;;;;;;;;27.16;29.59;101463.97;5090052;28;1145;-24
2023/05/11 09:55:24;;;;;;;;;;;;;;;28.39;28.27;101466.81;5088884;28;1091;-25
2023/05/11 09:57:57;;;;;;;;;;;;;;;28.03;28.16;101462.63;5083912;28;1054;-23
2023/05/11 10:00:24;;;;;;;;;;;;;;;27.22;29.87;101464.16;5086742;28;1071;-24
2023/05/11 10:03:00;;;;;;;;;;;;;;;27.80;29.62;101459.78;5085006;28;1070;-25
2023/05/11 10:05:25;;;;;;;;;;;;;;;28.57;27.87;101469.28;5093637;28;1993;-24
2023/05/11 10:08:04;;;;;;;;;;;;;;;27.60;28.80;101463.66;5089224;28;981;-24
2023/05/11 10:10:33;;;;;;;;;;;;;;;27.81;29.07;101465.03;5078491;28;1257;-27
2023/05/11 10:12:59;;;;;;;;;;;;;;;28.19;28.14;101459.06;5093115;28;1004;-28
2023/05/11 10:15:27;;;;;;;;;;;;;;;28.73;27.42;101462.09;5088870;28;1016;-29
2023/05/11 10:17:56;;;;;;;;;;;;;;;27.70;28.79;101457.25;5088340;28;1032;-29
2023/05/11 10:20:22;;;;;;;;;;;;;;;27.15;29.91;101463.13;5090595;28;1036;-28
2023/05/11 10:22:49;;;;;;;;;;;;;;;28.36;28.15;101454.47;5091738;28;1245;-32
2023/05/11 10:25:15;;;;;;;;;;;;;;;28.38;27.73;101461.56;5079718;28;1978;-30
2023/05/11 10:27:40;;;;;;;;;;;;;;;28.09;28.50;101447.59;5080588;28;1250;-26
2023/05/11 10:30:07;;;;;;;;;;;;;;;27.68;28.55;101448.44;5069680;28;1409;-26
2023/05/11 10:32:34;;;;;;;;;;;;;;;28.91;27.35;101459.09;5076816;28;1000;-30
2023/05/11 10:35:00;;;;;;;;;;;;;;;28.26;27.90;101448.38;5077224;28;1234;-32
2023/05/11 10:37:26;;;;;;;;;;;;;;;28.18;28.45;101449.25;5059803;28;1253;-30
2023/05/11 10:39:51;;;;;;;;;;;;;;;28.27;28.82;101447.38;5059063;28;1262;-33
2023/05/11 10:42:36;;;;;;;;;;;;;;;29.29;27.00;101460.28;5077650;28;1030;-31
2023/05/11 10:45:04;;;;;;;;;;;;;;;27.99;28.63;101450.47;5077236;28;1981;-33
2023/05/11 10:47:49;;;;;;;;;;;;;;;27.54;29.51;101455.38;5083502;28;1261;-34
2023/05/11 10:50:33;;;;;;;;;;;;;;;28.59;27.87;101453.69;5095497;28;1054;-30
2023/05/11 10:53:07;;;;;;;;;;;;;;;28.22;28.05;101463.28;5087643;28;1078;-35
2023/05/11 10:55:37;;;;;;;;;;;;;;;27.28;29.78;101461.81;5081265;28;1177;-32
2023/05/11 10:58:08;;;;;;;;;;;;;;;27.82;29.20;101455.06;5058868;28;1222;-34
2023/05/11 11:00:42;;;;;;;;;;;;;;;28.90;27.29;101457.44;5059165;28;1270;-32
2023/05/11 11:03:11;;;;;;;;;;;;;;;27.82;28.81;101452.34;5092662;28;1086;-35
2023/05/11 11:05:39;;;;;;;;;;;;;;;27.80;28.39;101451.69;5085098;28;1910;-34
2023/05/11 11:08:07;;;;;;;;;;;;;;;28.33;28.24;101448.53;5095073;28;1527;-33
2023/05/11 11:10:36;;;;;;;;;;;;;;;28.90;27.20;101462.00;5081166;28;1199;-31
2023/05/11 11:13:02;;;;;;;;;;;;;;;28.02;28.48;101460.94;5096459;28;1217;-34
2023/05/11 11:15:46;;;;;;;;;;;;;;;27.50;28.91;101452.16;5087015;28;1174;-33
2023/05/11 11:18:19;;;;;;;;;;;;;;;28.34;27.86;101447.53;5077142;28;1238;-32
2023/05/11 11:20:45;;;;;;;;;;;;;;;28.65;27.77;101462.97;5079390;28;1031;-30
2023/05/11 11:23:30;;;;;;;;;;;;;;;27.75;28.92;101447.66;5093570;28;1138;-33
2023/05/11 11:25:56;;;;;;;;;;;;;;;27.00;29.90;101450.22;5082648;28;1636;-35
2023/05/11 11:28:21;;;;;;;;;;;;;;;28.51;27.76;101452.91;5085533;28;991;-35
2023/05/11 11:30:47;;;;;;;;;;;;;;;28.64;27.20;101455.03;5076452;28;1147;-33
2023/05/11 11:33:12;;;;;;;;;;;;;;;24.43;29.10;101448.00;5069171;28;991;-32
2023/05/11 11:35:41;;;;;;;;;;;;;;;23.79;32.01;101445.03;5082199;28;1019;-29
2023/05/11 11:38:07;;;;;;;;;;;;;;;26.17;26.60;101444.47;5085157;28;1150;-34
2023/05/11 11:40:35;;;;;;;;;;;;;;;24.31;26.88;101443.78;5087011;28;1103;-34
2023/05/11 11:43:15;;;;;;;;;;;;;;;25.54;26.39;101445.34;5082810;28;1035;-33
2023/05/11 11:45:52;;;;;;;;;;;;;;;26.88;24.71;101451.53;5076163;28;1905;-31
2023/05/11 11:48:21;;;;;;;;;;;;;;;26.92;25.25;101452.06;5074861;28;1092;-34
2023/05/11 11:50:47;;;;;;;;;;;;;;;26.78;25.87;101436.34;5076867;28;1046;-33
2023/05/11 11:53:33;;;;;;;;;;;;;;;27.24;26.72;101445.06;5082981;28;1201;-34
2023/05/11 11:55:59;;;;;;;;;;;;;;;27.52;25.85;101442.03;5077465;28;1670;-32
2023/05/11 11:58:48;;;;;;;;;;;;;;;27.27;26.26;101436.63;5076313;28;1026;-34
2023/05/11 12:01:13;;;;;;;;;;;;;;;26.95;27.59;101432.81;5065815;28;1726;-33
2023/05/11 12:03:40;;;;;;;;;;;;;;;26.43;28.48;101435.53;5075614;28;1977;-33
2023/05/11 12:06:06;;;;;;;;;;;;;;;26.21;29.13;101436.91;5088449;28;1456;-34
2023/05/11 12:08:32;;;;;;;;;;;;;;;26.14;29.59;101431.31;5075255;28;921;-33
2023/05/11 12:10:58;;;;;;;;;;;;;;;26.13;29.67;101424.22;5077384;28;1210;-30
2023/05/11 12:13:24;;;;;;;;;;;;;;;26.11;29.76;101418.97;5079598;28;1285;-33
2023/05/11 12:15:49;;;;;;;;;;;;;;;25.89;30.65;101420.38;5080033;28;1257;-35
2023/05/11 12:18:21;;;;;;;;;;;;;;;26.17;30.09;101423.72;5081341;28;1182;-34
2023/05/11 12:20:47;;;;;;;;;;;;;;;26.26;29.90;101423.75;5093310;28;980;-32
2023/05/11 12:23:15;;;;;;;;;;;;;;;26.01;30.28;101421.78;5082740;28;1197;-33
2023/05/11 12:25:40;;;;;;;;;;;;;;;26.69;29.81;101429.22;5090400;28;1910;-31
2023/05/11 12:28:06;;;;;;;;;;;;;;;26.69;29.25;101422.97;5092099;28;1190;-34
2023/05/11 12:30:32;;;;;;;;;;;;;;;26.82;29.33;101422.50;5079834;28;1241;-32
2023/05/11 12:33:03;;;;;;;;;;;;;;;27.19;29.05;101426.66;5065046;28;928;-30
2023/05/11 12:35:31;;;;;;;;;;;;;;;26.62;29.59;101417.41;5079782;28;1095;-31
2023/05/11 12:37:58;;;;;;;;;;;;;;;26.80;29.55;101417.28;5092592;28;1138;-31
2023/05/11 12:40:23;;;;;;;;;;;;;;;27.42;29.29;101412.50;5078892;28;1206;-30
2023/05/11 12:42:49;;;;;;;;;;;;;;;27.12;29.45;101421.09;5081742;28;1155;-33
2023/05/11 12:45:15;;;;;;;;;;;;;;;27.07;29.61;101411.78;5090360;28;1909;-29
2023/05/11 12:47:40;;;;;;;;;;;;;;;27.17;29.49;101403.53;5061386;28;1238;-32